Detall de PIREP

Printer-friendly versionPDF version

[2015/04/17 07:37:00]
Flight IATA:CT0001
Pilot Number:041
Company ICAO:CAT
Aircraft Type:BE20/A
PAX:4
Departing Airport: LEPA
Destination Airport: LEIB
Alternate Airport:LEAL
Online: VATSIM
Route:BAKAX
Flight Level:FL40
No Slew and time accel
No pause
Crash detect
Detect pilot in Cockpit between each 30 and 45 minutes
07:37 Zero fuel Weight: 8738 Lbs, Fuel Weight: 3650 Lbs
07:37 VATSIM:LEPA 170700Z 18006KT 150V210 9999 FEW008 16/14 Q1016 NOSIG
07:37 VATSIM:LEIB 170700Z 23003KT CAVOK 18/14 Q1017 NOSIG
07:37 VOICE CATALONIAN
07:44 Parking Brakes off
07:54 Take-off
07:54 Take off Weight: 12342 Lbs
07:54 Wind: 176º @ 005 Knots Heading: 235º
07:54 POS N39º 33´ 22´´ E002º 43´ 48´´
07:54 Gear Up: 129 Knots
07:54 Flaps:1 at 129 Knots
07:54 Flaps:0 at 138 Knots
07:57 TOC
07:57 Fuel Weight: 3558 Lb
08:09 Wind:315º@005 Knots Heading: 250º Ground Speed: 210 Knots Altitude 3989 ft
08:22 TOD
08:22 Fuel Weight: 3307 Lb
08:24 Wind:291º@002 Knots Heading: 213º Ground Speed: 196 Knots Altitude 2385 ft
08:24 Flaps:1 at 181 Knots
08:26 Gear Down: 145 Knots
08:26 Flaps:2 at 134 Knots
08:28 TouchDown:Rate -35 ft/min Speed: 101 Knots
08:29 Flaps:1 at 95 Knots
08:29 Flaps:0 at 82 Knots
08:29 VATSIM:LEIB 170800Z 28005KT CAVOK 19/12 Q1018 NOSIG
08:29 Land
08:29 Wind:232º@002 Knots
08:29 Heading: 238º
08:29 Flight Duration: 00:35
08:29 Landing Weight: 12012 Lbs
08:29 POS N38º 52´ 23´´ E001º 22´ 25´´
08:32 Parking brakes on
08:32 Block to Block Duration: 00:48
08:32 Final Fuel: 3267 Lbls
08:32 Spent Fuel: 383 Lbls
08:32 Flight Length: 116 NM
08:32 TOD Land Length: 17 NM

Exportar CSV

Powered by Drupal - Modified by Danger4k